Time;durP1;ratioP1;P1;durP2;ratioP2;P2;SDS_P1;SDS_P2;PMS_P1;PMS_P2;Temp;Humidity;BMP_temperature;BMP_pressure;BME280_temperature;BME280_humidity;BME280_pressure;Samples;Min_cycle;Max_cycle;Signal;HPM_P1;HPM_P2
2022/04/21 00:02:26;;;;;;;7.88;2.97;;;;;;;7.93;100.00;98819.19;5175153;27;20482;-62
2022/04/21 00:04:52;;;;;;;5.95;2.35;;;;;;;7.97;100.00;98811.06;5175090;27;20050;-62
2022/04/21 00:07:18;;;;;;;4.85;2.65;;;;;;;8.02;100.00;98811.56;5175066;27;20046;-63
2022/04/21 00:09:45;;;;;;;5.65;2.78;;;;;;;7.94;100.00;98809.06;5174950;27;20050;-63
2022/04/21 00:12:11;;;;;;;8.07;3.20;;;;;;;7.97;100.00;98802.88;5174953;27;20046;-63
2022/04/21 00:14:38;;;;;;;5.93;2.65;;;;;;;7.95;100.00;98756.03;5174884;27;20079;-63
2022/04/21 00:17:04;;;;;;;4.18;2.75;;;;;;;7.88;100.00;98759.41;5174943;27;20046;-63
2022/04/21 00:19:31;;;;;;;2.60;2.40;;;;;;;7.88;100.00;98740.28;5174908;27;20099;-62
2022/04/21 00:24:42;;;;;;;4.47;2.30;;;;;;;7.84;100.00;98692.25;5174802;27;20095;-62
2022/04/21 00:27:08;;;;;;;4.75;3.00;;;;;;;7.82;100.00;98662.59;5174894;27;20050;-62
2022/04/21 00:29:35;;;;;;;6.20;2.70;;;;;;;7.78;100.00;98634.44;5174804;27;20054;-62
2022/04/21 00:32:02;;;;;;;6.82;2.65;;;;;;;7.74;100.00;98620.72;5174923;27;20523;-63
2022/04/21 00:34:28;;;;;;;3.05;2.42;;;;;;;7.70;100.00;98602.72;5174464;27;20451;-62
2022/04/21 00:36:55;;;;;;;5.63;2.72;;;;;;;7.69;100.00;98590.97;5173895;27;20500;-62
2022/04/21 00:39:21;;;;;;;4.30;2.60;;;;;;;7.67;100.00;98581.59;5174714;27;20057;-63
2022/04/21 00:41:47;;;;;;;4.57;2.90;;;;;;;7.64;100.00;98560.50;5174474;27;20122;-62
2022/04/21 00:44:13;;;;;;;7.53;2.67;;;;;;;7.61;100.00;98548.34;5174558;27;20049;-62
2022/04/21 00:46:41;;;;;;;6.18;3.10;;;;;;;7.54;100.00;98535.38;5174406;27;20050;-62
2022/04/21 00:49:08;;;;;;;8.60;3.25;;;;;;;7.53;100.00;98520.16;5174649;27;20050;-63
2022/04/21 00:51:35;;;;;;;5.88;3.00;;;;;;;7.48;100.00;98514.97;5174420;27;20050;-62
2022/04/21 00:54:03;;;;;;;6.22;2.92;;;;;;;7.44;100.00;98513.34;5174270;27;20501;-62
2022/04/21 00:56:29;;;;;;;10.40;3.13;;;;;;;7.43;100.00;98496.19;5174314;27;20053;-62
2022/04/21 00:58:57;;;;;;;9.52;3.42;;;;;;;7.43;100.00;98490.75;5174300;27;20042;-62
2022/04/21 01:04:10;;;;;;;8.38;2.75;;;;;;;7.43;100.00;98471.66;5174268;27;20130;-62
2022/04/21 01:06:36;;;;;;;11.43;3.67;;;;;;;7.39;100.00;98475.44;5174219;27;20049;-62
2022/04/21 01:09:03;;;;;;;5.22;2.72;;;;;;;7.34;100.00;98473.81;5173998;27;20050;-62
2022/04/21 01:11:30;;;;;;;10.02;3.17;;;;;;;7.34;100.00;98465.63;5173947;27;20061;-62
2022/04/21 01:13:56;;;;;;;13.40;3.17;;;;;;;7.33;100.00;98464.06;5173778;27;20054;-62
2022/04/21 01:16:22;;;;;;;5.90;3.03;;;;;;;7.35;100.00;98464.47;5173955;27;20098;-62
2022/04/21 01:18:49;;;;;;;6.90;2.97;;;;;;;7.35;100.00;98459.00;5173904;27;20488;-63
2022/04/21 01:21:15;;;;;;;5.25;3.15;;;;;;;7.34;100.00;98456.66;5174102;27;20223;-62
2022/04/21 01:23:42;;;;;;;4.45;3.15;;;;;;;7.31;100.00;98452.72;5173934;27;20637;-62
2022/04/21 01:26:08;;;;;;;7.85;3.10;;;;;;;7.30;100.00;98442.97;5173997;27;20404;-62
2022/04/21 01:28:36;;;;;;;4.32;2.92;;;;;;;7.34;100.00;98435.63;5173994;27;20489;-62
2022/04/21 01:31:02;;;;;;;4.35;3.22;;;;;;;7.34;100.00;98440.31;5173861;27;20694;-62
2022/04/21 01:33:28;;;;;;;4.70;2.83;;;;;;;7.35;100.00;98429.03;5173885;27;20052;-62
2022/04/21 01:35:54;;;;;;;12.88;3.40;;;;;;;7.29;100.00;98435.91;5173618;27;20474;-62
2022/04/21 01:41:11;;;;;;;8.15;3.13;;;;;;;7.34;100.00;98441.09;5173433;27;20092;-62
2022/04/21 01:43:38;;;;;;;4.90;3.15;;;;;;;7.35;100.00;98431.75;5173762;27;20568;-62
2022/04/21 01:46:05;;;;;;;5.25;3.28;;;;;;;7.43;100.00;98424.47;5173874;27;20242;-62
2022/04/21 01:48:31;;;;;;;8.52;3.80;;;;;;;7.36;100.00;98430.59;5172488;27;20046;-62
2022/04/21 01:50:57;;;;;;;7.93;3.20;;;;;;;7.30;100.00;98434.78;5173550;27;20058;-63
2022/04/21 01:53:24;;;;;;;3.92;2.97;;;;;;;7.31;100.00;98434.41;5173285;27;20075;-62
2022/04/21 01:55:51;;;;;;;3.65;3.10;;;;;;;7.30;100.00;98434.78;5173351;27;20490;-62
2022/04/21 01:58:17;;;;;;;4.15;3.03;;;;;;;7.29;100.00;98431.25;5173305;27;20051;-62
2022/04/21 02:00:44;;;;;;;5.90;3.20;;;;;;;7.33;100.00;98425.88;5173489;27;20099;-62
2022/04/21 02:03:10;;;;;;;3.50;2.92;;;;;;;7.33;100.00;98434.06;5173012;27;20050;-62
2022/04/21 02:05:36;;;;;;;6.57;3.45;;;;;;;7.34;100.00;98438.34;5173208;27;20099;-62
2022/04/21 02:08:03;;;;;;;8.52;2.85;;;;;;;7.30;100.00;98432.84;5172904;27;20421;-62
2022/04/21 02:10:30;;;;;;;4.50;2.60;;;;;;;7.27;100.00;98433.56;5173215;27;20046;-62
2022/04/21 02:12:57;;;;;;;4.70;2.80;;;;;;;7.27;100.00;98435.50;5173220;27;20412;-62
2022/04/21 02:15:24;;;;;;;9.23;3.42;;;;;;;7.30;100.00;98437.50;5173022;27;20054;-62
2022/04/21 02:17:50;;;;;;;6.68;3.50;;;;;;;7.31;100.00;98439.84;5173191;27;20513;-62
2022/04/21 02:20:17;;;;;;;7.05;3.35;;;;;;;7.36;100.00;98441.50;5172923;27;20061;-62
2022/04/21 02:22:45;;;;;;;7.00;3.17;;;;;;;7.41;100.00;98445.88;5172765;27;20496;-62
2022/04/21 02:25:12;;;;;;;7.65;2.95;;;;;;;7.41;100.00;98454.84;5172790;27;20048;-62
2022/04/21 02:27:40;;;;;;;3.58;2.72;;;;;;;7.36;100.00;98476.94;5173007;27;20098;-61
2022/04/21 02:30:07;;;;;;;6.47;2.85;;;;;;;7.38;100.00;98491.00;5172445;27;20520;-62
2022/04/21 02:32:34;;;;;;;7.90;3.00;;;;;;;7.40;100.00;98490.66;5172775;27;20042;-62
2022/04/21 02:35:00;;;;;;;5.80;3.00;;;;;;;7.38;100.00;98501.94;5172591;27;20440;-62
2022/04/21 02:37:26;;;;;;;3.38;2.90;;;;;;;7.32;100.00;98528.69;5172613;27;20149;-62
2022/04/21 02:39:53;;;;;;;5.65;2.83;;;;;;;7.37;100.00;98518.66;5172741;27;20050;-62
2022/04/21 02:42:19;;;;;;;4.28;2.30;;;;;;;7.43;100.00;98526.19;5172618;27;20050;-62
2022/04/21 02:44:47;;;;;;;3.17;2.70;;;;;;;7.40;100.00;98545.22;5172818;27;20148;-63
2022/04/21 02:47:14;;;;;;;5.30;2.67;;;;;;;7.35;100.00;98551.72;5172540;27;20053;-62
2022/04/21 02:49:45;;;;;;;3.83;2.45;;;;;;;7.31;100.00;98534.50;5172678;27;20061;-63
2022/04/21 02:52:12;;;;;;;6.97;2.97;;;;;;;7.30;100.00;98544.63;5172141;27;20089;-64
2022/04/21 02:57:24;;;;;;;7.32;2.80;;;;;;;7.24;100.00;98529.69;5172265;27;20523;-64
2022/04/21 02:59:53;;;;;;;3.72;2.85;;;;;;;7.13;100.00;98544.22;5171903;27;20098;-64
2022/04/21 03:02:20;;;;;;;4.45;2.72;;;;;;;6.99;100.00;98525.66;5172157;27;20046;-64
2022/04/21 03:04:47;;;;;;;5.72;3.10;;;;;;;7.03;100.00;98510.16;5172171;27;20515;-63
2022/04/21 03:07:13;;;;;;;9.45;3.40;;;;;;;7.13;100.00;98495.97;5172275;27;20053;-63
2022/04/21 03:09:40;;;;;;;8.38;3.00;;;;;;;7.17;100.00;98487.88;5172335;27;20049;-62
2022/04/21 03:12:08;;;;;;;6.32;3.00;;;;;;;7.15;100.00;98490.16;5172371;27;20106;-62
2022/04/21 03:14:35;;;;;;;5.30;2.47;;;;;;;7.12;100.00;98507.22;5172117;27;20046;-62
2022/04/21 03:17:02;;;;;;;9.98;3.13;;;;;;;7.16;100.00;98499.91;5172463;27;20417;-62
2022/04/21 03:19:28;;;;;;;6.22;2.80;;;;;;;7.17;100.00;98496.06;5171973;27;20054;-62
2022/04/21 03:24:39;;;;;;;4.28;3.22;;;;;;;7.21;100.00;98505.09;5172045;27;20095;-62
2022/04/21 03:27:05;;;;;;;4.93;3.00;;;;;;;7.19;100.00;98512.81;5172086;27;20424;-62
2022/04/21 03:29:31;;;;;;;3.63;2.85;;;;;;;7.18;100.00;98503.84;5171637;27;20068;-62
2022/04/21 03:31:58;;;;;;;7.40;2.83;;;;;;;7.10;100.00;98512.22;5172010;27;20046;-62
2022/04/21 03:34:25;;;;;;;3.30;2.80;;;;;;;7.05;100.00;98505.16;5171971;27;20843;-62
2022/04/21 03:36:51;;;;;;;7.95;3.30;;;;;;;7.10;100.00;98501.34;5171907;27;20046;-62
2022/04/21 03:39:20;;;;;;;6.25;3.03;;;;;;;7.08;100.00;98488.06;5171777;27;20043;-62
2022/04/21 03:41:48;;;;;;;4.60;3.58;;;;;;;7.10;100.00;98466.72;5171648;27;20054;-62
2022/04/21 03:44:14;;;;;;;3.72;3.10;;;;;;;7.10;100.00;98464.00;5172131;27;20057;-62
2022/04/21 03:46:40;;;;;;;6.07;2.75;;;;;;;7.10;100.00;98450.38;5171661;27;20054;-63
2022/04/21 03:49:07;;;;;;;6.50;3.22;;;;;;;7.09;100.00;98440.59;5171975;27;20051;-62
2022/04/21 03:51:34;;;;;;;4.78;2.85;;;;;;;7.12;100.00;98433.63;5171492;27;20110;-62
2022/04/21 03:54:00;;;;;;;5.43;2.90;;;;;;;7.07;100.00;98423.81;5171588;27;20050;-62
2022/04/21 03:56:27;;;;;;;5.22;3.00;;;;;;;7.06;100.00;98422.22;5171582;27;20050;-62
2022/04/21 03:58:53;;;;;;;7.13;2.72;;;;;;;7.11;100.00;98415.72;5171769;27;20046;-62
2022/04/21 04:01:20;;;;;;;5.78;3.15;;;;;;;7.15;100.00;98414.63;5171518;27;20455;-62
2022/04/21 04:03:46;;;;;;;3.95;3.10;;;;;;;7.11;100.00;98413.00;5171535;27;20073;-62
2022/04/21 04:11:38;;;;;;;5.28;2.97;;;;;;;6.99;100.00;98424.81;5172801;27;20061;-62
2022/04/21 04:14:05;;;;;;;3.88;2.88;;;;;;;7.01;100.00;98434.22;5175068;27;20509;-62
2022/04/21 04:16:33;;;;;;;4.63;2.50;;;;;;;7.02;100.00;98437.72;5175026;27;20042;-63
2022/04/21 04:18:59;;;;;;;4.53;2.33;;;;;;;7.05;100.00;98432.34;5174957;27;20050;-62
2022/04/21 04:21:25;;;;;;;5.65;2.78;;;;;;;7.01;100.00;98439.66;5174805;27;20053;-61
2022/04/21 04:23:51;;;;;;;4.80;2.83;;;;;;;7.03;100.00;98433.84;5175012;27;20394;-62
2022/04/21 04:26:18;;;;;;;6.35;2.92;;;;;;;7.19;100.00;98414.69;5174630;27;20080;-62
2022/04/21 04:28:44;;;;;;;2.53;1.85;;;;;;;7.23;100.00;98426.44;5174870;27;20046;-62
2022/04/21 04:31:10;;;;;;;4.13;2.72;;;;;;;7.21;100.00;98453.28;5174314;27;20054;-62
2022/04/21 04:33:37;;;;;;;5.28;2.55;;;;;;;7.11;100.00;98456.59;5174577;27;20050;-62
2022/04/21 04:36:04;;;;;;;5.55;2.50;;;;;;;7.14;100.00;98464.06;5174560;27;20046;-62
2022/04/21 04:38:30;;;;;;;2.90;2.42;;;;;;;7.18;100.00;98473.09;5174978;27;20046;-62
2022/04/21 04:40:56;;;;;;;5.07;2.50;;;;;;;7.14;100.00;98488.59;5174223;27;20046;-62
2022/04/21 04:43:22;;;;;;;4.30;2.63;;;;;;;7.15;100.00;98506.50;5174393;27;20053;-62
2022/04/21 04:48:33;;;;;;;2.50;2.22;;;;;;;7.17;100.00;98517.88;5174131;27;20075;-62
2022/04/21 04:51:00;;;;;;;4.40;2.63;;;;;;;7.20;100.00;98552.59;5174445;27;20046;-61
2022/04/21 04:53:26;;;;;;;8.70;2.92;;;;;;;7.22;100.00;98542.88;5174281;27;20424;-61
2022/04/21 04:55:52;;;;;;;3.47;2.72;;;;;;;7.22;100.00;98561.19;5174305;27;20060;-62
2022/04/21 04:58:18;;;;;;;3.92;2.63;;;;;;;7.27;100.00;98552.72;5174123;27;20424;-62
2022/04/21 05:00:48;;;;;;;5.53;2.60;;;;;;;7.30;100.00;98554.75;5173923;27;20092;-62
2022/04/21 05:03:17;;;;;;;6.25;3.13;;;;;;;7.24;100.00;98569.81;5173862;27;20046;-62
2022/04/21 05:05:44;;;;;;;8.32;2.85;;;;;;;7.22;100.00;98559.25;5174407;27;20403;-62
2022/04/21 05:08:10;;;;;;;5.32;2.58;;;;;;;7.25;100.00;98550.34;5174076;27;20046;-62
2022/04/21 05:10:36;;;;;;;6.72;2.67;;;;;;;7.24;100.00;98537.88;5173858;27;20042;-62
2022/04/21 05:13:02;;;;;;;2.97;2.30;;;;;;;7.24;100.00;98540.59;5174056;27;20052;-62
2022/04/21 05:15:29;;;;;;;4.80;2.45;;;;;;;7.19;100.00;98529.19;5173319;27;20042;-64
2022/04/21 05:17:57;;;;;;;4.50;2.50;;;;;;;7.17;100.00;98542.41;5174073;27;20099;-62
2022/04/21 05:20:23;;;;;;;4.05;2.08;;;;;;;7.20;100.00;98550.66;5173874;27;20061;-63
2022/04/21 05:22:52;;;;;;;5.15;2.85;;;;;;;7.26;100.00;98554.69;5173897;27;20046;-62
2022/04/21 05:25:19;;;;;;;7.70;2.30;;;;;;;7.52;100.00;98554.03;5173991;27;20091;-60
2022/04/21 05:27:45;;;;;;;2.83;2.60;;;;;;;7.69;100.00;98558.25;5173762;27;20070;-59
2022/04/21 05:32:58;;;;;;;3.08;2.47;;;;;;;7.92;100.00;98625.75;5173578;27;20049;-59
2022/04/21 05:35:25;;;;;;;4.25;2.55;;;;;;;7.96;100.00;98632.88;5173512;27;20050;-59
2022/04/21 05:37:52;;;;;;;5.30;2.78;;;;;;;8.01;100.00;98627.09;5173470;27;20049;-59
2022/04/21 05:40:19;;;;;;;4.15;2.30;;;;;;;8.04;100.00;98644.69;5173568;27;20053;-64
2022/04/21 05:42:49;;;;;;;8.95;2.50;;;;;;;8.17;100.00;98665.25;5173417;27;20057;-62
2022/04/21 05:45:17;;;;;;;3.85;2.55;;;;;;;8.22;100.00;98664.94;5173287;27;20056;-60
2022/04/21 05:47:44;;;;;;;5.20;2.33;;;;;;;8.31;100.00;98689.28;5173567;27;20046;-60
2022/04/21 05:50:13;;;;;;;4.13;2.53;;;;;;;8.20;100.00;98713.66;5173070;27;20050;-60
2022/04/21 05:52:44;;;;;;;2.50;2.28;;;;;;;8.23;100.00;98712.97;5172875;27;20506;-61
2022/04/21 05:55:11;;;;;;;3.90;2.47;;;;;;;8.25;100.00;98716.09;5173130;27;20077;-62
2022/04/21 05:57:40;;;;;;;5.95;2.65;;;;;;;8.36;100.00;98738.16;5173514;27;20069;-63
2022/04/21 06:00:08;;;;;;;3.47;2.45;;;;;;;8.36;100.00;98770.94;5172952;27;20061;-62
2022/04/21 06:02:35;;;;;;;3.58;2.50;;;;;;;8.35;100.00;98757.66;5172797;27;20050;-65
2022/04/21 06:05:01;;;;;;;6.07;2.55;;;;;;;8.42;100.00;98757.81;5173263;27;20523;-66
2022/04/21 06:07:28;;;;;;;5.65;2.75;;;;;;;8.45;100.00;98782.47;5173153;27;20099;-59
2022/04/21 06:09:55;;;;;;;6.80;2.72;;;;;;;8.61;100.00;98808.94;5172759;27;20053;-62
2022/04/21 06:12:25;;;;;;;5.65;2.80;;;;;;;8.72;100.00;98823.59;5172831;27;20054;-60
2022/04/21 06:14:51;;;;;;;6.15;2.70;;;;;;;8.64;100.00;98828.13;5172642;27;20046;-64
2022/04/21 06:17:18;;;;;;;4.35;2.88;;;;;;;8.58;100.00;98826.03;5172772;27;20057;-65
2022/04/21 06:19:44;;;;;;;2.83;2.42;;;;;;;8.52;100.00;98832.94;5172857;27;20060;-67
2022/04/21 06:22:10;;;;;;;4.97;2.95;;;;;;;8.40;100.00;98847.53;5172754;27;20452;-66
2022/04/21 06:24:38;;;;;;;4.75;2.78;;;;;;;8.45;100.00;98837.09;5172466;27;20050;-60
2022/04/21 06:27:04;;;;;;;5.47;2.95;;;;;;;8.51;100.00;98828.63;5172482;27;20094;-65
2022/04/21 06:29:31;;;;;;;4.93;3.38;;;;;;;8.43;100.00;98830.41;5172588;27;20473;-65
2022/04/21 06:31:57;;;;;;;4.57;3.22;;;;;;;8.46;100.00;98819.59;5172308;27;20056;-66
2022/04/21 06:34:23;;;;;;;3.72;2.88;;;;;;;8.48;100.00;98809.06;5171977;27;20052;-66
2022/04/21 06:36:50;;;;;;;6.72;3.13;;;;;;;8.35;100.00;98850.50;5172360;27;20054;-62
2022/04/21 06:39:16;;;;;;;8.88;3.28;;;;;;;8.33;100.00;98831.75;5172024;27;20042;-64
2022/04/21 06:41:43;;;;;;;6.30;3.70;;;;;;;8.27;100.00;98830.47;5171846;27;20057;-65
2022/04/21 06:49:37;;;;;;;5.03;3.15;;;;;;;8.24;100.00;98820.25;5172435;27;19930;-67
2022/04/21 06:52:05;;;;;;;6.35;3.58;;;;;;;8.40;100.00;98806.56;5172121;27;20061;-64
2022/04/21 06:54:31;;;;;;;4.22;3.17;;;;;;;8.39;100.00;98807.69;5172477;27;20042;-61
2022/04/21 06:56:58;;;;;;;7.13;3.47;;;;;;;8.22;100.00;98792.50;5172727;27;20121;-62
2022/04/21 06:59:24;;;;;;;7.15;3.28;;;;;;;8.37;100.00;98760.81;5171868;27;20053;-60
2022/04/21 07:01:50;;;;;;;8.45;3.42;;;;;;;8.30;100.00;98764.19;5172374;27;20061;-60
2022/04/21 07:04:17;;;;;;;6.68;3.78;;;;;;;8.20;100.00;98762.81;5171996;27;20050;-62
2022/04/21 07:06:43;;;;;;;5.43;3.35;;;;;;;8.09;100.00;98747.34;5172310;27;20094;-63
2022/04/21 07:09:10;;;;;;;5.85;3.40;;;;;;;8.13;100.00;98718.19;5172061;27;20103;-62
2022/04/21 07:11:37;;;;;;;8.23;3.42;;;;;;;8.22;100.00;98678.59;5172260;27;20045;-65
2022/04/21 07:14:04;;;;;;;6.32;3.58;;;;;;;8.22;100.00;98694.19;5172157;27;20082;-62
2022/04/21 07:16:31;;;;;;;8.32;3.88;;;;;;;8.29;100.00;98679.88;5171927;27;20054;-62
2022/04/21 07:18:57;;;;;;;5.70;3.80;;;;;;;8.25;100.00;98691.53;5172125;27;20086;-68
2022/04/21 07:21:23;;;;;;;8.93;3.38;;;;;;;8.32;100.00;98693.59;5172338;27;20805;-63
2022/04/21 07:23:50;;;;;;;6.50;3.47;;;;;;;8.32;100.00;98731.06;5172203;27;20046;-64
2022/04/21 07:26:17;;;;;;;3.92;3.05;;;;;;;8.30;100.00;98738.81;5171773;27;20051;-61
2022/04/21 07:28:44;;;;;;;7.00;3.03;;;;;;;8.48;100.00;98734.53;5171940;27;20046;-61
2022/04/21 07:31:11;;;;;;;5.82;3.45;;;;;;;8.66;100.00;98749.31;5171677;27;20609;-60
2022/04/21 07:33:38;;;;;;;8.43;3.78;;;;;;;8.54;100.00;98800.59;5172153;27;20078;-60
2022/04/21 07:36:04;;;;;;;6.22;3.25;;;;;;;8.44;100.00;98813.69;5171361;27;20094;-60
2022/04/21 07:38:34;;;;;;;9.40;3.90;;;;;;;8.41;100.00;98817.13;5171725;27;20616;-59
2022/04/21 07:41:01;;;;;;;7.60;3.33;;;;;;;8.21;100.00;98824.47;5171311;27;20466;-60
2022/04/21 07:43:27;;;;;;;7.75;3.53;;;;;;;8.35;100.00;98829.44;5171477;27;20046;-59
2022/04/21 07:45:53;;;;;;;7.65;3.40;;;;;;;8.33;100.00;98818.09;5171670;27;20210;-60
2022/04/21 07:48:20;;;;;;;5.30;3.45;;;;;;;8.24;100.00;98844.81;5175197;27;20053;-59
2022/04/21 07:50:46;;;;;;;5.80;3.60;;;;;;;8.25;100.00;98839.00;5175202;27;20470;-60
2022/04/21 07:53:15;;;;;;;5.30;3.25;;;;;;;8.29;100.00;98838.28;5174665;27;20054;-59
2022/04/21 07:55:44;;;;;;;4.70;3.22;;;;;;;8.42;100.00;98835.09;5175319;27;20046;-59
2022/04/21 07:58:10;;;;;;;3.95;3.35;;;;;;;8.65;100.00;98828.91;5174447;27;20508;-60
2022/04/21 08:00:38;;;;;;;5.43;3.20;;;;;;;8.71;100.00;98849.34;5174843;27;20046;-60
2022/04/21 08:03:05;;;;;;;9.50;3.05;;;;;;;8.50;100.00;98855.16;5174606;27;20081;-60
2022/04/21 08:05:32;;;;;;;4.07;2.92;;;;;;;8.56;100.00;98834.59;5174583;27;20069;-60
2022/04/21 08:07:59;;;;;;;5.30;3.30;;;;;;;8.62;100.00;98819.50;5174393;27;20054;-60
2022/04/21 08:10:28;;;;;;;4.10;3.10;;;;;;;8.54;100.00;98823.25;5174417;27;20515;-60
2022/04/21 08:12:56;;;;;;;4.82;3.22;;;;;;;8.53;100.00;98820.84;5174734;27;20089;-60
2022/04/21 08:15:24;;;;;;;9.27;3.53;;;;;;;8.52;100.00;98781.81;5174572;27;20050;-60
2022/04/21 08:17:51;;;;;;;7.65;3.25;;;;;;;8.69;100.00;98802.44;5174821;27;20046;-60
2022/04/21 08:20:17;;;;;;;12.07;3.83;;;;;;;8.68;100.00;98809.06;5174388;27;20054;-60
2022/04/21 08:22:44;;;;;;;6.45;3.15;;;;;;;8.65;100.00;98826.97;5174888;27;20166;-60
2022/04/21 08:33:23;;;;;;;6.72;3.75;;;;;;;8.78;100.00;98826.81;5174291;27;20029;-60
2022/04/21 08:35:51;;;;;;;6.05;3.75;;;;;;;8.83;100.00;98832.81;5174269;27;20054;-59
2022/04/21 08:38:18;;;;;;;4.55;3.67;;;;;;;8.85;100.00;98843.38;5174282;27;20054;-60
2022/04/21 08:40:51;;;;;;;6.03;3.33;;;;;;;8.85;100.00;98851.56;5173916;27;20054;-60
2022/04/21 08:43:18;;;;;;;5.05;4.18;;;;;;;8.77;100.00;98844.38;5174156;27;20131;-60
2022/04/21 08:45:46;;;;;;;10.63;3.72;;;;;;;8.94;100.00;98877.53;5174622;27;20050;-59
2022/04/21 08:48:13;;;;;;;6.38;3.42;;;;;;;8.83;100.00;98879.28;5173762;27;20073;-58
2022/04/21 08:50:40;;;;;;;4.50;3.15;;;;;;;8.77;100.00;98886.16;5174258;27;20057;-59
2022/04/21 08:53:07;;;;;;;6.85;3.35;;;;;;;8.64;100.00;98890.97;5174309;27;20398;-61
2022/04/21 08:55:34;;;;;;;6.43;3.80;;;;;;;8.57;100.00;98885.38;5174004;27;20057;-60
2022/04/21 08:58:00;;;;;;;5.22;2.58;;;;;;;8.66;100.00;98893.34;5173843;27;20878;-59
2022/04/21 09:00:26;;;;;;;7.60;3.33;;;;;;;8.69;100.00;98887.16;5174136;27;20046;-58
2022/04/21 09:02:53;;;;;;;4.57;3.05;;;;;;;8.73;100.00;98890.78;5173926;27;20417;-58
2022/04/21 09:05:22;;;;;;;8.13;3.88;;;;;;;8.82;100.00;98896.81;5173998;27;20050;-59
2022/04/21 09:07:49;;;;;;;5.57;2.92;;;;;;;9.04;100.00;98911.72;5174089;27;20253;-60
2022/04/21 09:10:17;;;;;;;3.60;3.00;;;;;;;9.11;100.00;98924.72;5174151;27;20042;-57
2022/04/21 09:12:46;;;;;;;7.90;3.30;;;;;;;8.95;100.00;98950.19;5173795;27;20064;-54
2022/04/21 09:15:14;;;;;;;4.30;3.22;;;;;;;8.85;100.00;98945.28;5173315;27;20042;-59
2022/04/21 09:17:42;;;;;;;5.90;2.90;;;;;;;8.99;100.00;98925.66;5173718;27;20492;-59
2022/04/21 09:20:10;;;;;;;4.82;3.15;;;;;;;9.10;100.00;98926.69;5173152;27;20118;-59
2022/04/21 09:22:41;;;;;;;7.95;3.38;;;;;;;9.05;100.00;98937.88;5173361;27;20111;-59
2022/04/21 09:25:08;;;;;;;8.68;3.20;;;;;;;9.01;100.00;98947.97;5173399;27;20050;-59
2022/04/21 09:27:39;;;;;;;6.10;3.58;;;;;;;8.94;100.00;98942.38;5173178;27;20088;-60
2022/04/21 09:30:10;;;;;;;7.85;3.05;;;;;;;8.95;100.00;98947.47;5173374;27;20046;-60
2022/04/21 09:32:38;;;;;;;7.20;3.30;;;;;;;8.93;100.00;98957.19;5173094;27;20090;-60
2022/04/21 09:35:06;;;;;;;6.20;3.58;;;;;;;9.00;100.00;98940.13;5173402;27;20046;-60
2022/04/21 09:37:33;;;;;;;10.38;3.65;;;;;;;8.99;100.00;98954.94;5173602;27;20591;-60
2022/04/21 09:40:03;;;;;;;6.53;3.20;;;;;;;9.05;100.00;98967.19;5173568;27;20042;-60
2022/04/21 09:42:29;;;;;;;6.30;3.65;;;;;;;9.05;100.00;98967.19;5173218;27;20068;-60
2022/04/21 09:47:49;;;;;;;5.28;3.67;;;;;;;9.07;100.00;98978.56;5173351;27;20548;-60
2022/04/21 09:50:15;;;;;;;7.88;3.17;;;;;;;9.20;100.00;98969.06;5173055;27;20504;-60
2022/04/21 09:52:47;;;;;;;6.55;3.33;;;;;;;9.17;100.00;98980.72;5172722;27;20058;-60
2022/04/21 09:55:21;;;;;;;6.80;2.92;;;;;;;9.25;100.00;98976.97;5173044;27;20193;-60
2022/04/21 09:57:51;;;;;;;3.95;3.17;;;;;;;9.26;100.00;98988.69;5173207;27;20046;-60
2022/04/21 10:00:20;;;;;;;8.68;3.25;;;;;;;9.17;100.00;98986.19;5173330;27;20095;-60
2022/04/21 10:02:47;;;;;;;7.57;3.63;;;;;;;9.14;100.00;98995.13;5172934;27;20057;-60
2022/04/21 10:05:16;;;;;;;7.22;2.95;;;;;;;9.33;100.00;98991.56;5172728;27;20508;-60
2022/04/21 10:07:44;;;;;;;6.30;3.72;;;;;;;9.47;100.00;98996.56;5172692;27;20056;-60
2022/04/21 10:10:11;;;;;;;6.10;3.30;;;;;;;9.34;100.00;99007.63;5171824;27;20050;-60
2022/04/21 10:12:39;;;;;;;5.00;2.95;;;;;;;9.32;100.00;99022.81;5172503;27;20524;-60
2022/04/21 10:15:07;;;;;;;6.50;3.15;;;;;;;9.19;100.00;99019.44;5173022;27;20087;-60
2022/04/21 10:17:34;;;;;;;6.90;4.07;;;;;;;9.23;100.00;99009.38;5172586;27;20049;-60
2022/04/21 10:20:01;;;;;;;3.80;3.15;;;;;;;9.25;100.00;99009.78;5172760;27;20046;-60
2022/04/21 10:22:31;;;;;;;10.68;3.60;;;;;;;9.24;100.00;99021.91;5172414;27;20054;-60
2022/04/21 10:24:58;;;;;;;6.00;3.40;;;;;;;9.25;100.00;99018.00;5172641;27;20075;-60
2022/04/21 10:27:38;;;;;;;3.60;3.08;;;;;;;9.21;100.00;99030.81;5172425;27;20046;-60
2022/04/21 10:30:16;;;;;;;12.32;3.45;;;;;;;8.97;100.00;99033.81;5172350;27;20060;-60
2022/04/21 10:32:53;;;;;;;5.90;3.40;;;;;;;8.97;100.00;99015.47;5172354;27;20057;-60
2022/04/21 10:35:40;;;;;;;7.40;2.97;;;;;;;9.03;100.00;99007.75;5172466;27;20133;-60
2022/04/21 10:38:25;;;;;;;8.82;3.53;;;;;;;9.10;100.00;99013.41;5172416;27;20049;-60
2022/04/21 10:40:56;;;;;;;5.70;3.38;;;;;;;9.09;100.00;99003.59;5172208;27;20095;-59
2022/04/21 10:43:23;;;;;;;4.22;3.38;;;;;;;9.23;100.00;98992.16;5172494;27;20452;-60
2022/04/21 10:46:03;;;;;;;8.68;4.60;;;;;;;9.31;100.00;99019.31;5171924;27;20557;-61
2022/04/21 10:48:40;;;;;;;7.70;3.90;;;;;;;9.30;100.00;99028.66;5171930;27;20053;-62
2022/04/21 10:51:06;;;;;;;9.80;4.10;;;;;;;9.35;100.00;99033.84;5172005;27;20049;-62
2022/04/21 10:59:29;;;;;;;5.60;3.67;;;;;;;9.66;100.00;99043.03;5172174;27;20168;-65
2022/04/21 11:01:55;;;;;;;5.65;3.30;;;;;;;9.81;100.00;99044.13;5172114;27;20058;-67
2022/04/21 11:04:23;;;;;;;7.07;2.97;;;;;;;9.74;100.00;99068.63;5172065;27;20061;-66
2022/04/21 11:06:51;;;;;;;4.95;3.08;;;;;;;9.75;100.00;99068.25;5172161;27;20102;-61
2022/04/21 11:09:38;;;;;;;6.53;4.03;;;;;;;9.87;100.00;99065.38;5172207;27;20088;-66
2022/04/21 11:12:06;;;;;;;5.07;3.45;;;;;;;9.80;100.00;99064.44;5172032;27;20216;-61
2022/04/21 11:14:34;;;;;;;10.25;3.83;;;;;;;9.86;100.00;99061.06;5171978;27;20500;-64
2022/04/21 11:17:01;;;;;;;4.95;3.03;;;;;;;9.63;100.00;99068.44;5171975;27;20081;-70
2022/04/21 11:19:32;;;;;;;4.45;2.70;;;;;;;9.55;100.00;99059.25;5171873;27;20575;-64
2022/04/21 11:21:59;;;;;;;3.58;2.78;;;;;;;9.54;100.00;99081.53;5175006;27;20098;-64
2022/04/21 11:24:26;;;;;;;5.47;3.30;;;;;;;9.39;100.00;99077.69;5175515;27;20050;-64
2022/04/21 11:26:54;;;;;;;5.75;3.03;;;;;;;9.38;100.00;99079.63;5175591;27;20127;-64
2022/04/21 11:29:21;;;;;;;6.80;3.15;;;;;;;9.48;100.00;99064.59;5175648;27;20068;-65
2022/04/21 11:31:47;;;;;;;5.97;3.50;;;;;;;9.54;100.00;99056.91;5175428;27;20528;-65
2022/04/21 11:34:21;;;;;;;8.07;3.60;;;;;;;9.52;100.00;99059.19;5175478;27;20078;-67
2022/04/21 11:36:48;;;;;;;6.07;3.58;;;;;;;9.42;100.00;99050.41;5175883;27;20053;-63
2022/04/21 11:39:14;;;;;;;4.60;3.42;;;;;;;9.37;100.00;99030.75;5175322;27;20098;-64
2022/04/21 11:41:42;;;;;;;9.55;4.07;;;;;;;9.52;100.00;99016.19;5175724;27;20513;-70
2022/04/21 11:44:09;;;;;;;5.43;2.97;;;;;;;9.54;100.00;99040.47;5174998;27;20049;-63
2022/04/21 11:46:37;;;;;;;5.53;2.67;;;;;;;9.22;100.00;99035.13;5174893;27;20424;-63
2022/04/21 11:49:04;;;;;;;5.78;3.58;;;;;;;9.12;100.00;99000.94;5175555;27;20058;-66
2022/04/21 11:51:30;;;;;;;5.15;3.53;;;;;;;9.14;100.00;99000.59;5175249;27;20054;-66
2022/04/21 11:54:03;;;;;;;6.10;3.72;;;;;;;9.10;100.00;98967.69;5175094;27;20049;-63
2022/04/21 11:56:29;;;;;;;5.13;3.33;;;;;;;9.10;100.00;98945.81;5175325;27;20421;-63
2022/04/21 11:58:56;;;;;;;4.32;3.58;;;;;;;9.16;100.00;98930.72;5174971;27;20057;-65
2022/04/21 12:06:55;;;;;;;8.80;3.15;;;;;;;9.03;100.00;98907.41;5175379;27;20052;-67
2022/04/21 12:09:23;;;;;;;4.72;3.20;;;;;;;9.02;100.00;98894.84;5175152;27;20042;-62
2022/04/21 12:11:52;;;;;;;6.60;3.58;;;;;;;8.97;100.00;98877.97;5175016;27;20046;-62
2022/04/21 12:14:19;;;;;;;3.65;2.97;;;;;;;8.93;100.00;98880.63;5174721;27;20046;-64
2022/04/21 12:16:49;;;;;;;3.60;2.70;;;;;;;8.91;100.00;98867.31;5175159;27;20516;-68
2022/04/21 12:19:18;;;;;;;4.57;3.42;;;;;;;9.10;100.00;98880.19;5174868;27;20042;-69
2022/04/21 12:21:45;;;;;;;5.47;3.45;;;;;;;8.89;100.00;98888.75;5175088;27;20046;-70
2022/04/21 12:24:15;;;;;;;5.80;3.47;;;;;;;8.98;100.00;98866.66;5174803;27;20466;-65
2022/04/21 12:26:52;;;;;;;3.70;3.38;;;;;;;8.91;100.00;98859.13;5174677;27;20053;-63
2022/04/21 12:29:20;;;;;;;5.22;3.78;;;;;;;8.91;100.00;98878.25;5174755;27;20050;-63